createdAt,value
2023-03-19T00:01:18.870Z,100275.59
2023-03-19T00:03:51.845Z,100287.25
2023-03-19T00:06:25.714Z,100285.53
2023-03-19T00:08:58.382Z,100296.22
2023-03-19T00:11:30.737Z,100295.38
2023-03-19T00:14:03.377Z,100290.00
2023-03-19T00:16:38.545Z,100291.81
2023-03-19T00:19:10.957Z,100292.78
2023-03-19T00:21:43.435Z,100296.38
2023-03-19T00:24:17.654Z,100302.63
2023-03-19T00:26:50.160Z,100300.03
2023-03-19T00:29:23.676Z,100294.66
2023-03-19T00:31:56.099Z,100300.09
2023-03-19T00:34:31.017Z,100308.13
2023-03-19T00:37:03.865Z,100317.94
2023-03-19T00:39:36.380Z,100317.94
2023-03-19T00:42:09.338Z,100320.69
2023-03-19T00:44:42.027Z,100318.09
2023-03-19T00:47:14.606Z,100328.78
2023-03-19T00:49:47.401Z,100331.47
2023-03-19T00:52:20.017Z,100333.28
2023-03-19T00:54:52.599Z,100333.34
2023-03-19T00:57:25.867Z,100344.13
2023-03-19T00:59:58.968Z,100353.03
2023-03-19T01:02:33.166Z,100356.56
2023-03-19T01:05:08.338Z,100362.00
2023-03-19T01:07:40.984Z,100378.09
2023-03-19T01:10:14.040Z,100370.09
2023-03-19T01:12:46.458Z,100375.50
2023-03-19T01:15:19.586Z,100373.78
2023-03-19T01:17:52.049Z,100386.28
2023-03-19T01:20:24.516Z,100390.78
2023-03-19T01:22:57.608Z,100396.19
2023-03-19T01:25:30.583Z,100404.31
2023-03-19T01:28:08.517Z,100400.69
2023-03-19T01:30:44.259Z,100391.88
2023-03-19T01:33:42.949Z,100391.00
2023-03-19T01:36:20.424Z,100400.84
2023-03-19T01:39:05.021Z,100403.59
2023-03-19T01:41:38.832Z,100402.72
2023-03-19T01:44:37.117Z,100410.72
2023-03-19T01:47:31.729Z,100415.38
2023-03-19T01:50:30.535Z,100417.97
2023-03-19T01:53:34.109Z,100438.56
2023-03-19T01:56:24.196Z,100437.72
2023-03-19T01:59:13.204Z,100439.59
2023-03-19T02:02:16.545Z,100451.16
2023-03-19T02:04:53.335Z,100450.28
2023-03-19T02:07:31.186Z,100437.00
2023-03-19T02:10:10.041Z,100463.72
2023-03-19T02:12:43.337Z,100462.00
2023-03-19T02:15:16.952Z,100464.75
2023-03-19T02:17:50.043Z,100462.16
2023-03-19T02:20:25.168Z,100456.81
2023-03-19T02:23:24.634Z,100461.34
2023-03-19T02:26:09.491Z,100456.16
2023-03-19T02:28:46.371Z,100461.41
2023-03-19T02:31:23.768Z,100461.50
2023-03-19T02:34:27.075Z,100465.09
2023-03-19T02:37:05.912Z,100454.50
2023-03-19T02:39:47.226Z,100458.13
2023-03-19T02:42:22.530Z,100456.38
2023-03-19T02:44:55.033Z,100445.69
2023-03-19T02:47:28.102Z,100459.13
2023-03-19T02:50:00.506Z,100456.53
2023-03-19T02:52:32.845Z,100463.63
2023-03-19T02:55:08.071Z,100455.69
2023-03-19T02:57:40.610Z,100461.03
2023-03-19T03:00:13.690Z,100449.56
2023-03-19T03:02:47.382Z,100450.47
2023-03-19T03:05:21.334Z,100462.09
2023-03-19T03:07:54.770Z,100466.66
2023-03-19T03:10:27.950Z,100469.34
2023-03-19T03:13:01.737Z,100477.34
2023-03-19T03:15:34.649Z,100475.59
2023-03-19T03:18:07.070Z,100480.09
2023-03-19T03:20:39.439Z,100474.81
2023-03-19T03:23:12.123Z,100485.50
2023-03-19T03:25:44.475Z,100475.78
2023-03-19T03:28:19.009Z,100483.00
2023-03-19T03:30:51.855Z,100487.41
2023-03-19T03:33:25.774Z,100499.97
2023-03-19T03:35:58.369Z,100501.75
2023-03-19T03:38:32.986Z,100511.59
2023-03-19T03:41:06.082Z,100509.84
2023-03-19T03:43:39.628Z,100514.31
2023-03-19T03:46:12.257Z,100509.06
2023-03-19T03:48:44.652Z,100515.28
2023-03-19T03:51:18.475Z,100513.53
2023-03-19T03:53:51.623Z,100514.47
2023-03-19T03:56:24.047Z,100510.16
2023-03-19T03:58:56.752Z,100519.88
2023-03-19T04:01:29.229Z,100524.44
2023-03-19T04:04:02.812Z,100528.03
2023-03-19T04:06:35.746Z,100521.00
2023-03-19T04:09:20.205Z,100522.00
2023-03-19T04:11:52.644Z,100526.47
2023-03-19T04:14:25.148Z,100522.00
2023-03-19T04:16:57.683Z,100532.75
2023-03-19T04:19:30.192Z,100536.31
2023-03-19T04:22:04.934Z,100539.91
2023-03-19T04:24:38.602Z,100543.50
2023-03-19T04:27:11.135Z,100556.84
2023-03-19T04:29:44.845Z,100558.66
2023-03-19T04:32:18.394Z,100556.91
2023-03-19T04:34:51.702Z,100570.38
2023-03-19T04:37:24.145Z,100569.50
2023-03-19T04:39:58.188Z,100571.38
2023-03-19T04:42:30.733Z,100580.31
2023-03-19T04:45:23.298Z,100592.00
2023-03-19T04:47:56.472Z,100586.66
2023-03-19T04:50:29.386Z,100600.94
2023-03-19T04:53:02.862Z,100599.22
2023-03-19T04:55:35.371Z,100607.31
2023-03-19T04:58:12.549Z,100600.22
2023-03-19T05:00:47.729Z,100613.59
2023-03-19T05:03:25.658Z,100606.56
2023-03-19T05:05:58.160Z,100614.56
2023-03-19T05:08:30.638Z,100619.97
2023-03-19T05:11:03.424Z,100610.31
2023-03-19T05:13:44.632Z,100618.28
2023-03-19T05:16:17.315Z,100613.84
2023-03-19T05:18:49.884Z,100614.81
2023-03-19T05:21:22.852Z,100620.16
2023-03-19T05:23:57.842Z,100626.41
2023-03-19T05:26:31.172Z,100623.81
2023-03-19T05:29:12.383Z,100631.81
2023-03-19T05:32:03.278Z,100638.16
2023-03-19T05:34:37.603Z,100631.09
2023-03-19T05:37:10.123Z,100639.09
2023-03-19T05:39:43.446Z,100646.31
2023-03-19T05:42:16.876Z,100645.50
2023-03-19T05:44:50.040Z,100651.72
2023-03-19T05:47:27.309Z,100658.06
2023-03-19T05:50:02.457Z,100663.41
2023-03-19T05:52:36.666Z,100666.13
2023-03-19T05:55:09.749Z,100665.28
2023-03-19T05:57:46.180Z,100670.75
2023-03-19T06:00:23.687Z,100674.25
2023-03-19T06:02:56.269Z,100673.47
2023-03-19T06:05:51.678Z,100683.28
2023-03-19T06:08:36.318Z,100686.03
2023-03-19T06:11:20.387Z,100681.63
2023-03-19T06:14:00.293Z,100681.69
2023-03-19T06:16:33.465Z,100686.22
2023-03-19T06:19:07.711Z,100690.63
2023-03-19T06:21:40.171Z,100688.03
2023-03-19T06:24:12.707Z,100690.69
2023-03-19T06:26:45.388Z,100695.16
2023-03-19T06:29:22.147Z,100697.81
2023-03-19T06:32:01.786Z,100705.88
2023-03-19T06:34:42.478Z,100711.22
2023-03-19T06:37:15.011Z,100716.63
2023-03-19T06:39:47.430Z,100720.25
2023-03-19T06:42:19.765Z,100729.09
2023-03-19T06:44:53.736Z,100731.84
2023-03-19T06:47:26.536Z,100735.47
2023-03-19T06:49:59.807Z,100734.56
2023-03-19T06:52:32.285Z,100742.56
2023-03-19T06:55:10.050Z,100745.25
2023-03-19T06:57:42.657Z,100750.56
2023-03-19T07:00:15.537Z,100752.38
2023-03-19T07:02:47.936Z,100754.94
2023-03-19T07:05:20.328Z,100752.31
2023-03-19T07:07:52.673Z,100761.97
2023-03-19T07:10:25.096Z,100754.81
2023-03-19T07:12:57.585Z,100756.53
2023-03-19T07:15:30.332Z,100760.00
2023-03-19T07:18:03.431Z,100769.66
2023-03-19T07:20:36.452Z,100774.09
2023-03-19T07:23:09.015Z,100778.41
2023-03-19T07:25:41.590Z,100782.81
2023-03-19T07:28:14.565Z,100786.28
2023-03-19T07:30:46.902Z,100793.31
2023-03-19T07:33:20.574Z,100800.31
2023-03-19T07:35:53.063Z,100794.09
2023-03-19T07:38:25.624Z,100808.19
2023-03-19T07:41:02.282Z,100806.31
2023-03-19T07:43:35.496Z,100813.34
2023-03-19T07:46:08.114Z,100813.34
2023-03-19T07:48:40.760Z,100815.94
2023-03-19T07:51:13.152Z,100821.28
2023-03-19T07:53:45.597Z,100819.41
2023-03-19T07:56:18.039Z,100819.34
2023-03-19T07:58:50.344Z,100817.41
2023-03-19T08:01:23.012Z,100820.97
2023-03-19T08:03:55.303Z,100826.22
2023-03-19T08:06:28.048Z,100833.28
2023-03-19T08:09:00.371Z,100824.34
2023-03-19T08:11:32.939Z,100834.09
2023-03-19T08:14:06.039Z,100830.44
2023-03-19T08:16:38.739Z,100847.31
2023-03-19T08:19:11.103Z,100844.50
2023-03-19T08:21:43.458Z,100850.63
2023-03-19T08:24:15.875Z,100855.06
2023-03-19T08:26:48.596Z,100859.47
2023-03-19T08:29:21.788Z,100862.03
2023-03-19T08:31:54.858Z,100854.00
2023-03-19T08:34:27.250Z,100857.53
2023-03-19T08:36:59.655Z,100860.16
2023-03-19T08:39:32.135Z,100864.63
2023-03-19T08:42:04.774Z,100873.38
2023-03-19T08:44:37.241Z,100875.09
2023-03-19T08:47:09.733Z,100873.25
2023-03-19T08:49:42.302Z,100877.69
2023-03-19T08:52:14.674Z,100889.28
2023-03-19T08:54:47.182Z,100886.53
2023-03-19T08:57:19.542Z,100889.09
2023-03-19T08:59:54.949Z,100907.81
2023-03-19T09:02:27.666Z,100905.13
2023-03-19T09:05:00.042Z,100912.22
2023-03-19T09:07:32.387Z,100915.75
2023-03-19T09:10:05.396Z,100913.09
2023-03-19T09:12:37.855Z,100917.56
2023-03-19T09:15:10.412Z,100925.59
2023-03-19T09:17:42.882Z,100927.31
2023-03-19T09:20:15.582Z,100924.66
2023-03-19T09:22:47.962Z,100920.25
2023-03-19T09:25:20.409Z,100921.09
2023-03-19T09:27:52.807Z,100921.03
2023-03-19T09:30:25.548Z,100922.84
2023-03-19T09:32:57.979Z,100921.03
2023-03-19T09:35:31.663Z,100930.88
2023-03-19T09:38:04.122Z,100930.88
2023-03-19T09:40:44.391Z,100934.38
2023-03-19T09:43:38.701Z,100934.38
2023-03-19T09:46:22.770Z,100933.53
2023-03-19T09:49:26.188Z,100935.22
2023-03-19T09:52:10.566Z,100949.50
2023-03-19T09:54:54.576Z,100953.97
2023-03-19T09:57:29.878Z,100955.69
2023-03-19T10:00:06.891Z,100949.50
2023-03-19T10:02:42.715Z,100955.69
2023-03-19T10:05:36.835Z,100953.91
2023-03-19T10:08:28.658Z,100956.59
2023-03-19T10:11:09.780Z,100964.59
2023-03-19T10:13:55.476Z,100961.03
2023-03-19T10:16:29.806Z,100970.88
2023-03-19T10:19:04.693Z,100972.63
2023-03-19T10:21:53.822Z,100968.13
2023-03-19T10:24:34.343Z,100972.63
2023-03-19T10:27:19.308Z,100974.34
2023-03-19T10:29:52.604Z,100977.91
2023-03-19T10:32:29.631Z,100983.25
2023-03-19T10:35:23.860Z,100992.13
2023-03-19T10:37:56.333Z,100976.09
2023-03-19T10:40:44.597Z,100976.09
2023-03-19T10:43:23.881Z,100983.16
2023-03-19T10:45:57.573Z,100977.81
2023-03-19T10:48:30.906Z,100976.88
2023-03-19T10:51:06.656Z,100972.47
2023-03-19T10:53:39.700Z,100978.69
2023-03-19T10:56:46.147Z,100985.75
2023-03-19T10:59:40.737Z,100992.91
2023-03-19T11:02:21.473Z,100991.09
2023-03-19T11:05:22.365Z,100993.69
2023-03-19T11:08:22.721Z,100992.00
2023-03-19T11:11:02.111Z,100993.69
2023-03-19T11:13:36.065Z,100997.34
2023-03-19T11:16:08.492Z,101000.00
2023-03-19T11:18:41.276Z,100994.66
2023-03-19T11:21:31.126Z,100989.38
2023-03-19T11:24:11.753Z,100992.13
2023-03-19T11:26:54.025Z,100995.69
2023-03-19T11:29:30.078Z,101000.13
2023-03-19T11:32:30.552Z,100998.38
2023-03-19T11:35:28.791Z,101000.19
2023-03-19T11:38:03.249Z,101008.25
2023-03-19T11:40:47.298Z,101017.19
2023-03-19T11:43:46.760Z,101010.13
2023-03-19T11:46:39.015Z,101005.72
2023-03-19T11:49:36.731Z,101003.03
2023-03-19T11:52:21.900Z,101011.84
2023-03-19T11:55:23.830Z,101004.78
2023-03-19T11:58:16.073Z,101006.56
2023-03-19T12:00:53.982Z,101010.25
2023-03-19T12:03:38.992Z,101018.16
2023-03-19T12:06:33.232Z,101024.41
2023-03-19T12:09:05.778Z,101017.31
2023-03-19T12:12:08.894Z,101019.19
2023-03-19T12:14:56.479Z,101027.22
2023-03-19T12:17:41.727Z,101031.75
2023-03-19T12:20:45.771Z,101024.66
2023-03-19T12:23:30.143Z,101024.66
2023-03-19T12:26:06.210Z,101023.84
2023-03-19T12:28:54.187Z,101031.88
2023-03-19T12:31:53.464Z,101034.59
2023-03-19T12:34:36.177Z,101029.25
2023-03-19T12:37:35.178Z,101025.84
2023-03-19T12:40:25.784Z,101031.19
2023-03-19T12:43:02.522Z,101032.09
2023-03-19T12:45:39.910Z,101036.59
2023-03-19T12:48:28.010Z,101034.91
2023-03-19T12:51:09.433Z,101036.72
2023-03-19T12:53:56.762Z,101040.31
2023-03-19T12:56:49.572Z,101023.41
2023-03-19T12:59:39.228Z,101034.09
2023-03-19T13:02:36.187Z,101030.63
2023-03-19T13:05:26.280Z,101034.09
2023-03-19T13:08:19.099Z,101032.44
2023-03-19T13:10:51.535Z,101035.03
2023-03-19T13:13:48.701Z,101035.00
2023-03-19T13:16:43.697Z,101030.56
2023-03-19T13:19:38.703Z,101035.03
2023-03-19T13:22:17.369Z,101035.97
2023-03-19T13:24:52.483Z,101029.75
2023-03-19T13:27:34.778Z,101030.63
2023-03-19T13:30:11.595Z,101024.22
2023-03-19T13:32:50.951Z,101021.44
2023-03-19T13:35:32.319Z,101023.97
2023-03-19T13:38:15.390Z,101022.81
2023-03-19T13:40:55.289Z,101023.56
2023-03-19T13:43:33.969Z,101019.06
2023-03-19T13:46:12.381Z,101020.81
2023-03-19T13:48:48.253Z,101027.94
2023-03-19T13:51:21.916Z,101025.28
2023-03-19T13:54:20.241Z,101022.53
2023-03-19T13:57:01.123Z,101015.34
2023-03-19T13:59:38.661Z,101016.09
2023-03-19T14:02:26.463Z,101024.84
2023-03-19T14:05:00.861Z,101016.81
2023-03-19T14:07:38.868Z,101020.41
2023-03-19T14:10:18.588Z,101023.09
2023-03-19T14:12:52.489Z,101019.63
2023-03-19T14:15:29.166Z,101026.78
2023-03-19T14:18:06.233Z,101022.41
2023-03-19T14:20:53.856Z,101031.38
2023-03-19T14:23:39.505Z,101035.78
2023-03-19T14:26:20.664Z,101030.38
2023-03-19T14:28:58.488Z,101026.72
2023-03-19T14:31:43.164Z,101037.22
2023-03-19T14:34:24.845Z,101048.94
2023-03-19T14:37:23.406Z,101046.53
2023-03-19T14:40:10.057Z,101046.38
2023-03-19T14:43:05.327Z,101041.63
2023-03-19T14:45:55.686Z,101044.50
2023-03-19T14:49:16.237Z,101045.66
2023-03-19T14:52:14.807Z,101049.50
2023-03-19T14:54:59.683Z,101053.16
2023-03-19T14:57:37.254Z,101054.88
2023-03-19T15:00:28.650Z,101053.88
2023-03-19T15:03:01.832Z,101056.69
2023-03-19T15:05:36.968Z,101066.72
2023-03-19T15:08:13.888Z,101062.50
2023-03-19T15:10:51.671Z,101059.00
2023-03-19T15:13:55.576Z,101059.13
2023-03-19T15:16:33.856Z,101064.66
2023-03-19T15:19:13.154Z,101062.03
2023-03-19T15:21:50.352Z,101073.47
2023-03-19T15:24:24.517Z,101072.25
2023-03-19T15:26:56.993Z,101068.47
2023-03-19T15:29:33.999Z,101074.53
2023-03-19T15:32:10.241Z,101073.69
2023-03-19T15:34:45.166Z,101068.41
2023-03-19T15:37:17.806Z,101071.19
2023-03-19T15:39:55.390Z,101066.84
2023-03-19T15:42:31.230Z,101063.38
2023-03-19T15:45:09.099Z,101070.66
2023-03-19T15:47:47.353Z,101068.97
2023-03-19T15:50:23.984Z,101073.53
2023-03-19T15:53:06.645Z,101066.50
2023-03-19T15:55:39.443Z,101068.38
2023-03-19T15:58:17.889Z,101065.81
2023-03-19T16:00:54.218Z,101069.47
2023-03-19T16:03:51.405Z,101072.25
2023-03-19T16:06:32.730Z,101067.03
2023-03-19T16:09:37.519Z,101072.38
2023-03-19T16:12:36.793Z,101072.50
2023-03-19T16:15:41.782Z,101069.03
2023-03-19T16:18:20.737Z,101071.78
2023-03-19T16:21:16.125Z,101070.03
2023-03-19T16:24:21.251Z,101070.97
2023-03-19T16:26:54.574Z,101071.91
2023-03-19T16:29:28.946Z,101071.91
2023-03-19T16:32:23.916Z,101065.69
2023-03-19T16:35:03.948Z,101076.44
2023-03-19T16:37:42.255Z,101072.88
2023-03-19T16:40:17.432Z,101079.97
2023-03-19T16:42:57.246Z,101080.78
2023-03-19T16:45:32.742Z,101090.53
2023-03-19T16:48:05.314Z,101094.00
2023-03-19T16:50:40.223Z,101108.19
2023-03-19T16:53:24.540Z,101109.06
2023-03-19T16:55:59.103Z,101113.53
2023-03-19T16:58:37.140Z,101120.63
2023-03-19T17:01:32.625Z,101120.63
2023-03-19T17:04:17.676Z,101114.41
2023-03-19T17:07:15.938Z,101121.53
2023-03-19T17:09:48.460Z,101124.22
2023-03-19T17:12:21.002Z,101127.78
2023-03-19T17:14:54.692Z,101129.56
2023-03-19T17:17:27.413Z,101139.38
2023-03-19T17:19:59.950Z,101136.78
2023-03-19T17:22:32.744Z,101149.22
2023-03-19T17:25:11.354Z,101154.56
2023-03-19T17:27:44.525Z,101153.69
2023-03-19T17:30:16.967Z,101158.16
2023-03-19T17:32:51.162Z,101160.03
2023-03-19T17:35:23.898Z,101159.19
2023-03-19T17:37:56.665Z,101159.19
2023-03-19T17:40:29.431Z,101163.63
2023-03-19T17:43:02.367Z,101161.91
2023-03-19T17:45:34.907Z,101163.63
2023-03-19T17:48:22.065Z,101170.78
2023-03-19T17:51:00.388Z,101160.16
2023-03-19T17:53:32.939Z,101167.31
2023-03-19T17:56:05.926Z,101162.03
2023-03-19T17:58:39.532Z,101166.41
2023-03-19T18:01:22.692Z,101177.16
2023-03-19T18:03:58.105Z,101168.28
2023-03-19T18:06:36.694Z,101182.56
2023-03-19T18:09:19.760Z,101171.88
2023-03-19T18:11:52.691Z,101176.44
2023-03-19T18:14:25.134Z,101171.09
2023-03-19T18:16:57.697Z,101187.13
2023-03-19T18:19:32.817Z,101188.06
2023-03-19T18:22:17.077Z,101178.31
2023-03-19T18:24:49.670Z,101189.00
2023-03-19T18:27:25.064Z,101189.06
2023-03-19T18:29:59.110Z,101182.88
2023-03-19T18:32:32.389Z,101183.72
2023-03-19T18:35:05.694Z,101176.63
2023-03-19T18:37:38.063Z,101180.25
2023-03-19T18:40:15.688Z,101183.84
2023-03-19T18:42:49.036Z,101182.13
2023-03-19T18:45:21.383Z,101183.91
2023-03-19T18:47:56.130Z,101188.38
2023-03-19T18:50:30.181Z,101183.97
2023-03-19T18:53:02.668Z,101182.25
2023-03-19T18:55:35.302Z,101175.16
2023-03-19T18:58:11.655Z,101177.81
2023-03-19T19:00:45.094Z,101165.38
2023-03-19T19:03:21.505Z,101168.03
2023-03-19T19:05:53.970Z,101163.66
2023-03-19T19:08:27.002Z,101153.88
2023-03-19T19:11:03.777Z,101158.31
2023-03-19T19:13:46.145Z,101153.03
2023-03-19T19:16:28.600Z,101160.19
2023-03-19T19:19:01.479Z,101148.66
2023-03-19T19:21:33.889Z,101148.66
2023-03-19T19:24:06.599Z,101148.66
2023-03-19T19:26:39.133Z,101142.47
2023-03-19T19:29:20.709Z,101154.00
2023-03-19T19:31:54.428Z,101150.41
2023-03-19T19:34:27.614Z,101154.84
2023-03-19T19:37:00.730Z,101164.69
2023-03-19T19:39:33.137Z,101155.88
2023-03-19T19:42:06.118Z,101169.28
2023-03-19T19:44:39.229Z,101177.34
2023-03-19T19:47:16.263Z,101170.28
2023-03-19T19:49:49.285Z,101173.88
2023-03-19T19:52:22.413Z,101175.75
2023-03-19T19:54:55.054Z,101181.91
2023-03-19T19:57:27.513Z,101181.91
2023-03-19T20:00:00.352Z,101189.91
2023-03-19T20:02:32.996Z,101190.78
2023-03-19T20:05:06.197Z,101195.25
2023-03-19T20:07:43.152Z,101197.88
2023-03-19T20:10:17.424Z,101197.00
2023-03-19T20:12:57.426Z,101202.34
2023-03-19T20:15:34.167Z,101191.66
2023-03-19T20:18:06.857Z,101197.00
2023-03-19T20:20:39.300Z,101206.81
2023-03-19T20:23:20.244Z,101207.69
2023-03-19T20:26:04.458Z,101201.50
2023-03-19T20:28:37.709Z,101190.03
2023-03-19T20:31:31.355Z,101188.16
2023-03-19T20:34:07.097Z,101176.63
2023-03-19T20:36:40.413Z,101175.75
2023-03-19T20:39:16.390Z,101173.13
2023-03-19T20:41:52.674Z,101166.91
2023-03-19T20:44:27.956Z,101176.66
2023-03-19T20:47:07.121Z,101165.19
2023-03-19T20:49:58.202Z,101165.19
2023-03-19T20:52:32.820Z,101162.56
2023-03-19T20:55:25.556Z,101175.88
2023-03-19T20:58:01.733Z,101165.28
2023-03-19T21:00:39.436Z,101177.72
2023-03-19T21:03:23.665Z,101178.59
2023-03-19T21:06:08.858Z,101192.81
2023-03-19T21:08:51.619Z,101201.72
2023-03-19T21:11:39.039Z,101182.94
2023-03-19T21:14:19.175Z,101194.44
2023-03-19T21:16:54.096Z,101195.25
2023-03-19T21:19:26.706Z,101175.63
2023-03-19T21:22:00.910Z,101172.97
2023-03-19T21:24:35.836Z,101180.03
2023-03-19T21:27:19.226Z,101193.34
2023-03-19T21:29:53.786Z,101202.22
2023-03-19T21:32:31.896Z,101203.97
2023-03-19T21:35:04.855Z,101203.97
2023-03-19T21:37:39.557Z,101192.34
2023-03-19T21:40:31.557Z,101195.03
2023-03-19T21:43:23.028Z,101195.03
2023-03-19T21:46:13.961Z,101203.91
2023-03-19T21:48:55.892Z,101195.94
2023-03-19T21:51:29.717Z,101202.16
2023-03-19T21:54:09.175Z,101193.28
2023-03-19T21:56:45.818Z,101193.28
2023-03-19T21:59:22.978Z,101186.19
2023-03-19T22:01:56.457Z,101193.28
2023-03-19T22:04:30.054Z,101183.59
2023-03-19T22:07:03.167Z,101188.00
2023-03-19T22:09:35.916Z,101187.06
2023-03-19T22:12:29.821Z,101191.53
2023-03-19T22:15:03.337Z,101198.69
2023-03-19T22:17:38.217Z,101204.97
2023-03-19T22:20:24.618Z,101205.94
2023-03-19T22:22:58.475Z,101207.69
2023-03-19T22:25:40.620Z,101209.41
2023-03-19T22:28:21.081Z,101194.34
2023-03-19T22:30:53.759Z,101199.75
2023-03-19T22:33:27.327Z,101202.47
2023-03-19T22:36:00.878Z,101199.78
2023-03-19T22:38:38.267Z,101197.13
2023-03-19T22:41:23.041Z,101195.38
2023-03-19T22:43:57.372Z,101193.63
2023-03-19T22:46:30.188Z,101190.94
2023-03-19T22:49:12.486Z,101192.75
2023-03-19T22:51:45.056Z,101204.38
2023-03-19T22:54:17.420Z,101207.91
2023-03-19T22:56:49.838Z,101202.69
2023-03-19T22:59:23.087Z,101196.44
2023-03-19T23:01:58.502Z,101200.88
2023-03-19T23:04:33.573Z,101200.06
2023-03-19T23:07:09.689Z,101200.06
2023-03-19T23:09:43.104Z,101199.22
2023-03-19T23:12:18.562Z,101198.31
2023-03-19T23:14:50.941Z,101195.72
2023-03-19T23:17:23.603Z,101201.06
2023-03-19T23:19:56.055Z,101199.31
2023-03-19T23:22:28.728Z,101202.91
2023-03-19T23:25:01.731Z,101195.84
2023-03-19T23:27:34.210Z,101183.34
2023-03-19T23:30:07.306Z,101179.81
2023-03-19T23:32:39.778Z,101177.22
2023-03-19T23:35:23.002Z,101187.00
2023-03-19T23:38:00.189Z,101175.47
2023-03-19T23:40:33.516Z,101167.50
2023-03-19T23:43:05.838Z,101177.28
2023-03-19T23:45:41.986Z,101176.44
2023-03-19T23:48:17.851Z,101172.03
2023-03-19T23:50:51.154Z,101173.75
2023-03-19T23:53:25.921Z,101168.50
2023-03-19T23:56:04.979Z,101161.41
2023-03-19T23:58:43.344Z,101162.28
